sensor_id;sensor_type;location;lat;lon;timestamp;pressure;altitude;pressure_sealevel;temperature;humidity
5595;BME280;1003;48.002;7.788;2022-11-20T00:01:30;102478.94;;;6.52;100.00
5595;BME280;1003;48.002;7.788;2022-11-20T00:03:58;102396.72;;;6.56;100.00
5595;BME280;1003;48.002;7.788;2022-11-20T00:06:27;102303.38;;;6.56;100.00
5595;BME280;1003;48.002;7.788;2022-11-20T00:08:57;102243.50;;;6.57;100.00
5595;BME280;1003;48.002;7.788;2022-11-20T00:11:27;102181.44;;;6.50;100.00
5595;BME280;1003;48.002;7.788;2022-11-20T00:13:57;102132.25;;;6.49;100.00
5595;BME280;1003;48.002;7.788;2022-11-20T00:16:27;102098.13;;;6.50;100.00
5595;BME280;1003;48.002;7.788;2022-11-20T00:18:55;102072.13;;;6.46;100.00
5595;BME280;1003;48.002;7.788;2022-11-20T00:21:24;102042.28;;;6.49;100.00
5595;BME280;1003;48.002;7.788;2022-11-20T00:23:54;102030.59;;;6.48;100.00
5595;BME280;1003;48.002;7.788;2022-11-20T00:26:26;102019.13;;;6.52;100.00
5595;BME280;1003;48.002;7.788;2022-11-20T00:28:55;101985.78;;;6.51;100.00
5595;BME280;1003;48.002;7.788;2022-11-20T00:31:23;101974.13;;;6.52;100.00
5595;BME280;1003;48.002;7.788;2022-11-20T00:33:51;101943.31;;;6.51;100.00
5595;BME280;1003;48.002;7.788;2022-11-20T00:36:21;101917.34;;;6.49;100.00
5595;BME280;1003;48.002;7.788;2022-11-20T00:38:51;101899.78;;;6.64;100.00
5595;BME280;1003;48.002;7.788;2022-11-20T00:41:19;101861.50;;;6.65;100.00
5595;BME280;1003;48.002;7.788;2022-11-20T00:43:47;101824.63;;;6.61;100.00
5595;BME280;1003;48.002;7.788;2022-11-20T00:46:17;101797.94;;;6.60;100.00
5595;BME280;1003;48.002;7.788;2022-11-20T00:48:45;101742.69;;;6.54;100.00
5595;BME280;1003;48.002;7.788;2022-11-20T00:51:14;101709.41;;;6.55;100.00
5595;BME280;1003;48.002;7.788;2022-11-20T00:53:42;101684.56;;;6.58;100.00
5595;BME280;1003;48.002;7.788;2022-11-20T00:56:12;101671.34;;;6.61;100.00
5595;BME280;1003;48.002;7.788;2022-11-20T00:58:42;101636.94;;;6.55;100.00
5595;BME280;1003;48.002;7.788;2022-11-20T01:01:13;101616.97;;;6.55;100.00
5595;BME280;1003;48.002;7.788;2022-11-20T01:03:43;101601.13;;;6.54;100.00
5595;BME280;1003;48.002;7.788;2022-11-20T01:06:14;101581.75;;;6.50;100.00
5595;BME280;1003;48.002;7.788;2022-11-20T01:08:42;101570.00;;;6.48;100.00
5595;BME280;1003;48.002;7.788;2022-11-20T01:11:12;101560.34;;;6.55;100.00
5595;BME280;1003;48.002;7.788;2022-11-20T01:13:41;101546.34;;;6.59;100.00
5595;BME280;1003;48.002;7.788;2022-11-20T01:16:12;101505.63;;;6.62;100.00
5595;BME280;1003;48.002;7.788;2022-11-20T01:18:41;101488.94;;;6.61;100.00
5595;BME280;1003;48.002;7.788;2022-11-20T01:21:12;101477.25;;;6.60;100.00
5595;BME280;1003;48.002;7.788;2022-11-20T01:23:41;101445.41;;;6.55;100.00
5595;BME280;1003;48.002;7.788;2022-11-20T01:26:12;101411.13;;;6.51;100.00
5595;BME280;1003;48.002;7.788;2022-11-20T01:28:40;101401.38;;;6.57;100.00
5595;BME280;1003;48.002;7.788;2022-11-20T01:31:14;101389.69;;;6.56;100.00
5595;BME280;1003;48.002;7.788;2022-11-20T01:33:43;101372.94;;;6.55;100.00
5595;BME280;1003;48.002;7.788;2022-11-20T01:36:13;101359.81;;;6.60;100.00
5595;BME280;1003;48.002;7.788;2022-11-20T01:38:41;101333.13;;;6.58;100.00
5595;BME280;1003;48.002;7.788;2022-11-20T01:41:10;101323.91;;;6.57;100.00
5595;BME280;1003;48.002;7.788;2022-11-20T01:43:58;101320.38;;;6.52;100.00
5595;BME280;1003;48.002;7.788;2022-11-20T01:46:27;101310.06;;;6.66;100.00
5595;BME280;1003;48.002;7.788;2022-11-20T01:48:59;101286.44;;;6.57;100.00
5595;BME280;1003;48.002;7.788;2022-11-20T01:51:33;101274.75;;;6.56;100.00
5595;BME280;1003;48.002;7.788;2022-11-20T01:54:06;101258.22;;;6.60;100.00
5595;BME280;1003;48.002;7.788;2022-11-20T01:56:40;101235.66;;;6.58;100.00
5595;BME280;1003;48.002;7.788;2022-11-20T01:59:10;101217.28;;;6.56;100.00
5595;BME280;1003;48.002;7.788;2022-11-20T02:01:41;101192.31;;;6.56;100.00
5595;BME280;1003;48.002;7.788;2022-11-20T02:04:10;101198.88;;;6.54;100.00
5595;BME280;1003;48.002;7.788;2022-11-20T02:06:42;101190.53;;;6.54;100.00
5595;BME280;1003;48.002;7.788;2022-11-20T02:09:11;101179.91;;;6.60;100.00
5595;BME280;1003;48.002;7.788;2022-11-20T02:11:38;101171.69;;;6.62;100.00
5595;BME280;1003;48.002;7.788;2022-11-20T02:14:05;101149.88;;;6.58;100.00
5595;BME280;1003;48.002;7.788;2022-11-20T02:16:36;101115.63;;;6.55;100.00
5595;BME280;1003;48.002;7.788;2022-11-20T02:19:15;101096.59;;;6.59;100.00
5595;BME280;1003;48.002;7.788;2022-11-20T02:21:54;101071.63;;;6.59;100.00
5595;BME280;1003;48.002;7.788;2022-11-20T02:24:24;101048.97;;;6.54;100.00
5595;BME280;1003;48.002;7.788;2022-11-20T02:26:55;101021.69;;;6.61;100.00
5595;BME280;1003;48.002;7.788;2022-11-20T02:29:28;101022.03;;;6.70;100.00
5595;BME280;1003;48.002;7.788;2022-11-20T02:32:00;101007.84;;;6.69;100.00
5595;BME280;1003;48.002;7.788;2022-11-20T02:34:28;100976.72;;;6.61;100.00
5595;BME280;1003;48.002;7.788;2022-11-20T02:36:56;100968.59;;;6.66;100.00
5595;BME280;1003;48.002;7.788;2022-11-20T02:39:28;100935.38;;;6.69;100.00
5595;BME280;1003;48.002;7.788;2022-11-20T02:41:56;100910.97;;;6.62;100.00
5595;BME280;1003;48.002;7.788;2022-11-20T02:44:23;100885.91;;;6.58;100.00
5595;BME280;1003;48.002;7.788;2022-11-20T02:46:50;100856.72;;;6.57;100.00
5595;BME280;1003;48.002;7.788;2022-11-20T02:49:17;100820.75;;;6.52;100.00
5595;BME280;1003;48.002;7.788;2022-11-20T02:51:44;100772.28;;;6.47;100.00
5595;BME280;1003;48.002;7.788;2022-11-20T02:54:11;100749.00;;;6.48;100.00
5595;BME280;1003;48.002;7.788;2022-11-20T02:56:40;100712.84;;;6.37;100.00
5595;BME280;1003;48.002;7.788;2022-11-20T02:59:08;100650.94;;;6.27;100.00
5595;BME280;1003;48.002;7.788;2022-11-20T03:01:35;100620.94;;;6.25;100.00
5595;BME280;1003;48.002;7.788;2022-11-20T03:04:02;100591.53;;;6.17;100.00
5595;BME280;1003;48.002;7.788;2022-11-20T03:06:29;100544.03;;;6.14;100.00
5595;BME280;1003;48.002;7.788;2022-11-20T03:08:56;100513.31;;;6.16;100.00
5595;BME280;1003;48.002;7.788;2022-11-20T03:11:24;100476.28;;;6.30;100.00
5595;BME280;1003;48.002;7.788;2022-11-20T03:13:52;100435.66;;;6.36;100.00
5595;BME280;1003;48.002;7.788;2022-11-20T03:16:21;100389.09;;;6.39;100.00
5595;BME280;1003;48.002;7.788;2022-11-20T03:18:51;100345.00;;;6.40;100.00
5595;BME280;1003;48.002;7.788;2022-11-20T03:21:19;100318.50;;;6.45;100.00
5595;BME280;1003;48.002;7.788;2022-11-20T03:23:46;100302.78;;;6.49;100.00
5595;BME280;1003;48.002;7.788;2022-11-20T03:26:17;100307.75;;;6.47;100.00
5595;BME280;1003;48.002;7.788;2022-11-20T03:28:48;100307.88;;;6.52;100.00
5595;BME280;1003;48.002;7.788;2022-11-20T03:31:19;100319.72;;;6.61;100.00
5595;BME280;1003;48.002;7.788;2022-11-20T03:33:47;100303.88;;;6.60;100.00
5595;BME280;1003;48.002;7.788;2022-11-20T03:36:16;100303.13;;;6.63;100.00
5595;BME280;1003;48.002;7.788;2022-11-20T03:38:44;100302.19;;;6.59;100.00
5595;BME280;1003;48.002;7.788;2022-11-20T03:41:16;100287.34;;;6.64;100.00
5595;BME280;1003;48.002;7.788;2022-11-20T03:43:48;100290.72;;;6.67;100.00
5595;BME280;1003;48.002;7.788;2022-11-20T03:46:17;100289.25;;;6.74;100.00
5595;BME280;1003;48.002;7.788;2022-11-20T03:48:45;100286.75;;;6.74;100.00
5595;BME280;1003;48.002;7.788;2022-11-20T03:51:15;100279.13;;;6.69;100.00
5595;BME280;1003;48.002;7.788;2022-11-20T03:53:45;100265.75;;;6.67;100.00
5595;BME280;1003;48.002;7.788;2022-11-20T03:56:15;100256.66;;;6.69;100.00
5595;BME280;1003;48.002;7.788;2022-11-20T03:58:43;100254.06;;;6.66;100.00
5595;BME280;1003;48.002;7.788;2022-11-20T04:01:14;100245.72;;;6.64;100.00
5595;BME280;1003;48.002;7.788;2022-11-20T04:03:44;100246.47;;;6.62;100.00
5595;BME280;1003;48.002;7.788;2022-11-20T04:06:16;100259.06;;;6.66;100.00
5595;BME280;1003;48.002;7.788;2022-11-20T04:08:44;100243.13;;;6.61;100.00
5595;BME280;1003;48.002;7.788;2022-11-20T04:11:13;100248.09;;;6.60;100.00
5595;BME280;1003;48.002;7.788;2022-11-20T04:13:42;100252.56;;;6.73;100.00
5595;BME280;1003;48.002;7.788;2022-11-20T04:16:10;100254.25;;;6.74;100.00
5595;BME280;1003;48.002;7.788;2022-11-20T04:18:37;100256.06;;;6.79;100.00
5595;BME280;1003;48.002;7.788;2022-11-20T04:21:06;100236.69;;;6.71;100.00
5595;BME280;1003;48.002;7.788;2022-11-20T04:23:33;100240.22;;;6.79;100.00
5595;BME280;1003;48.002;7.788;2022-11-20T04:26:02;100228.50;;;6.78;100.00
5595;BME280;1003;48.002;7.788;2022-11-20T04:28:29;100221.06;;;6.79;100.00
5595;BME280;1003;48.002;7.788;2022-11-20T04:31:03;100217.66;;;6.77;100.00
5595;BME280;1003;48.002;7.788;2022-11-20T04:33:30;100210.50;;;6.91;100.00
5595;BME280;1003;48.002;7.788;2022-11-20T04:36:02;100202.88;;;6.87;100.00
5595;BME280;1003;48.002;7.788;2022-11-20T04:38:31;100188.53;;;6.78;100.00
5595;BME280;1003;48.002;7.788;2022-11-20T04:40:59;100182.66;;;6.74;100.00
5595;BME280;1003;48.002;7.788;2022-11-20T04:43:26;100174.22;;;6.71;100.00
5595;BME280;1003;48.002;7.788;2022-11-20T04:45:53;100177.66;;;6.74;100.00
5595;BME280;1003;48.002;7.788;2022-11-20T04:48:21;100168.41;;;6.70;100.00
5595;BME280;1003;48.002;7.788;2022-11-20T04:50:49;100168.41;;;6.72;100.00
5595;BME280;1003;48.002;7.788;2022-11-20T04:53:17;100162.56;;;6.70;100.00
5595;BME280;1003;48.002;7.788;2022-11-20T04:55:46;100160.06;;;6.70;100.00
5595;BME280;1003;48.002;7.788;2022-11-20T04:58:14;100145.78;;;6.64;100.00
5595;BME280;1003;48.002;7.788;2022-11-20T05:00:41;100141.66;;;6.66;100.00
5595;BME280;1003;48.002;7.788;2022-11-20T05:03:08;100122.59;;;6.70;100.00
5595;BME280;1003;48.002;7.788;2022-11-20T05:05:35;100112.56;;;6.68;100.00
5595;BME280;1003;48.002;7.788;2022-11-20T05:08:03;100111.72;;;6.68;100.00
5595;BME280;1003;48.002;7.788;2022-11-20T05:10:30;100107.47;;;6.62;100.00
5595;BME280;1003;48.002;7.788;2022-11-20T05:12:58;100108.34;;;6.66;100.00
5595;BME280;1003;48.002;7.788;2022-11-20T05:15:25;100097.53;;;6.67;100.00
5595;BME280;1003;48.002;7.788;2022-11-20T05:17:53;100090.03;;;6.67;100.00
5595;BME280;1003;48.002;7.788;2022-11-20T05:20:20;100087.69;;;6.73;100.00
5595;BME280;1003;48.002;7.788;2022-11-20T05:22:47;100088.56;;;6.76;100.00
5595;BME280;1003;48.002;7.788;2022-11-20T05:25:14;100077.72;;;6.74;100.00
5595;BME280;1003;48.002;7.788;2022-11-20T05:27:41;100087.13;;;6.88;100.00
5595;BME280;1003;48.002;7.788;2022-11-20T05:30:12;100073.69;;;6.81;100.00
5595;BME280;1003;48.002;7.788;2022-11-20T05:32:40;100064.47;;;6.78;100.00
5595;BME280;1003;48.002;7.788;2022-11-20T05:35:07;100064.53;;;6.83;100.00
5595;BME280;1003;48.002;7.788;2022-11-20T05:37:34;100059.47;;;6.78;100.00
5595;BME280;1003;48.002;7.788;2022-11-20T05:40:02;100065.34;;;6.82;100.00
5595;BME280;1003;48.002;7.788;2022-11-20T05:42:30;100067.03;;;6.81;100.00
5595;BME280;1003;48.002;7.788;2022-11-20T05:44:57;100082.81;;;6.79;100.00
5595;BME280;1003;48.002;7.788;2022-11-20T05:47:27;100071.91;;;6.77;100.00
5595;BME280;1003;48.002;7.788;2022-11-20T05:49:54;100066.25;;;6.84;100.00
5595;BME280;1003;48.002;7.788;2022-11-20T05:52:21;100062.84;;;6.80;100.00
5595;BME280;1003;48.002;7.788;2022-11-20T05:54:48;100058.03;;;6.90;100.00
5595;BME280;1003;48.002;7.788;2022-11-20T05:57:16;100047.06;;;6.83;100.00
5595;BME280;1003;48.002;7.788;2022-11-20T05:59:43;100074.59;;;6.84;100.00
5595;BME280;1003;48.002;7.788;2022-11-20T06:02:10;100042.22;;;6.91;100.00
5595;BME280;1003;48.002;7.788;2022-11-20T06:04:38;100053.16;;;6.97;100.00
5595;BME280;1003;48.002;7.788;2022-11-20T06:07:06;100038.88;;;6.90;100.00
5595;BME280;1003;48.002;7.788;2022-11-20T06:09:33;100036.31;;;6.87;100.00
5595;BME280;1003;48.002;7.788;2022-11-20T06:12:00;100032.06;;;6.83;100.00
5595;BME280;1003;48.002;7.788;2022-11-20T06:14:27;100038.78;;;6.84;100.00
5595;BME280;1003;48.002;7.788;2022-11-20T06:16:54;100035.44;;;6.83;100.00
5595;BME280;1003;48.002;7.788;2022-11-20T06:19:21;100037.97;;;6.87;100.00
5595;BME280;1003;48.002;7.788;2022-11-20T06:21:50;100045.47;;;6.88;100.00
5595;BME280;1003;48.002;7.788;2022-11-20T06:24:17;100042.06;;;6.83;100.00
5595;BME280;1003;48.002;7.788;2022-11-20T06:26:44;100047.06;;;6.83;100.00
5595;BME280;1003;48.002;7.788;2022-11-20T06:29:12;100058.88;;;6.90;100.00
5595;BME280;1003;48.002;7.788;2022-11-20T06:31:39;100054.59;;;6.84;100.00
5595;BME280;1003;48.002;7.788;2022-11-20T06:34:08;100051.19;;;6.81;100.00
5595;BME280;1003;48.002;7.788;2022-11-20T06:36:35;100047.91;;;6.83;100.00
5595;BME280;1003;48.002;7.788;2022-11-20T06:39:04;100052.88;;;6.82;100.00
5595;BME280;1003;48.002;7.788;2022-11-20T06:41:31;100048.66;;;6.79;100.00
5595;BME280;1003;48.002;7.788;2022-11-20T06:43:58;100046.94;;;6.77;100.00
5595;BME280;1003;48.002;7.788;2022-11-20T06:46:25;100046.91;;;6.75;100.00
5595;BME280;1003;48.002;7.788;2022-11-20T06:48:52;100054.50;;;6.78;100.00
5595;BME280;1003;48.002;7.788;2022-11-20T06:51:20;100057.00;;;6.80;100.00
5595;BME280;1003;48.002;7.788;2022-11-20T06:53:48;100065.44;;;6.85;100.00
5595;BME280;1003;48.002;7.788;2022-11-20T06:56:17;100075.53;;;6.91;100.00
5595;BME280;1003;48.002;7.788;2022-11-20T06:58:44;100076.31;;;6.89;100.00
5595;BME280;1003;48.002;7.788;2022-11-20T07:01:13;100071.31;;;6.89;100.00
5595;BME280;1003;48.002;7.788;2022-11-20T07:03:42;100078.97;;;6.96;100.00
5595;BME280;1003;48.002;7.788;2022-11-20T07:06:09;100068.97;;;6.96;100.00
5595;BME280;1003;48.002;7.788;2022-11-20T07:08:36;100068.97;;;6.95;100.00
5595;BME280;1003;48.002;7.788;2022-11-20T07:11:06;100071.50;;;6.98;100.00
5595;BME280;1003;48.002;7.788;2022-11-20T07:13:35;100049.84;;;6.98;100.00
5595;BME280;1003;48.002;7.788;2022-11-20T07:16:05;100052.38;;;7.00;100.00
5595;BME280;1003;48.002;7.788;2022-11-20T07:18:33;100052.34;;;6.98;100.00
5595;BME280;1003;48.002;7.788;2022-11-20T07:21:01;100052.44;;;7.03;100.00
5595;BME280;1003;48.002;7.788;2022-11-20T07:23:29;100045.13;;;7.14;100.00
5595;BME280;1003;48.002;7.788;2022-11-20T07:25:56;100046.91;;;7.21;100.00
5595;BME280;1003;48.002;7.788;2022-11-20T07:28:23;100046.88;;;7.18;100.00
5595;BME280;1003;48.002;7.788;2022-11-20T07:30:53;100037.63;;;7.14;100.00
5595;BME280;1003;48.002;7.788;2022-11-20T07:33:20;100050.13;;;7.15;100.00
5595;BME280;1003;48.002;7.788;2022-11-20T07:35:47;100040.94;;;7.13;100.00
5595;BME280;1003;48.002;7.788;2022-11-20T07:38:14;100044.25;;;7.12;100.00
5595;BME280;1003;48.002;7.788;2022-11-20T07:40:42;100046.03;;;7.17;100.00
5595;BME280;1003;48.002;7.788;2022-11-20T07:43:09;100032.63;;;7.14;100.00
5595;BME280;1003;48.002;7.788;2022-11-20T07:45:36;100046.88;;;7.18;100.00
5595;BME280;1003;48.002;7.788;2022-11-20T07:48:05;100049.47;;;7.24;100.00
5595;BME280;1003;48.002;7.788;2022-11-20T07:50:32;100056.22;;;7.28;100.00
5595;BME280;1003;48.002;7.788;2022-11-20T07:53:03;100035.28;;;7.21;100.00
5595;BME280;1003;48.002;7.788;2022-11-20T07:55:31;100036.03;;;7.17;100.00
5595;BME280;1003;48.002;7.788;2022-11-20T07:57:59;100031.03;;;7.17;100.00
5595;BME280;1003;48.002;7.788;2022-11-20T08:00:26;100026.75;;;7.12;100.00
5595;BME280;1003;48.002;7.788;2022-11-20T08:02:53;100034.28;;;7.13;100.00
5595;BME280;1003;48.002;7.788;2022-11-20T08:05:23;100022.50;;;7.06;100.00
5595;BME280;1003;48.002;7.788;2022-11-20T08:07:50;100030.94;;;7.11;100.00
5595;BME280;1003;48.002;7.788;2022-11-20T08:10:17;100034.28;;;7.13;100.00
5595;BME280;1003;48.002;7.788;2022-11-20T08:12:45;100027.59;;;7.10;100.00
5595;BME280;1003;48.002;7.788;2022-11-20T08:15:26;99973.47;;;7.14;100.00
5595;BME280;1003;48.002;7.788;2022-11-20T08:18:00;99935.19;;;7.17;100.00
5595;BME280;1003;48.002;7.788;2022-11-20T08:20:29;99714.38;;;7.18;100.00
5595;BME280;1003;48.002;7.788;2022-11-20T08:22:59;99712.78;;;7.23;100.00
5595;BME280;1003;48.002;7.788;2022-11-20T08:25:28;99714.56;;;7.33;100.00
5595;BME280;1003;48.002;7.788;2022-11-20T08:27:58;99722.97;;;7.38;100.00
5595;BME280;1003;48.002;7.788;2022-11-20T08:30:25;99734.63;;;7.39;100.00
5595;BME280;1003;48.002;7.788;2022-11-20T08:32:53;99733.03;;;7.47;100.00
5595;BME280;1003;48.002;7.788;2022-11-20T08:35:21;99734.09;;;7.65;100.00
5595;BME280;1003;48.002;7.788;2022-11-20T08:37:50;99722.50;;;7.74;100.00
5595;BME280;1003;48.002;7.788;2022-11-20T08:40:17;99719.25;;;7.81;100.00
5595;BME280;1003;48.002;7.788;2022-11-20T08:42:47;99709.34;;;7.92;100.00
5595;BME280;1003;48.002;7.788;2022-11-20T08:45:16;99714.44;;;8.03;100.00
5595;BME280;1003;48.002;7.788;2022-11-20T08:47:44;99709.41;;;8.01;100.00
5595;BME280;1003;48.002;7.788;2022-11-20T08:50:14;99706.16;;;8.08;100.00
5595;BME280;1003;48.002;7.788;2022-11-20T08:52:42;99713.69;;;8.13;100.00
5595;BME280;1003;48.002;7.788;2022-11-20T08:55:11;99718.75;;;8.21;100.00
5595;BME280;1003;48.002;7.788;2022-11-20T08:57:38;99705.31;;;8.09;100.00
5595;BME280;1003;48.002;7.788;2022-11-20T09:00:07;99697.75;;;8.03;100.00
5595;BME280;1003;48.002;7.788;2022-11-20T09:02:34;99685.09;;;7.88;100.00
5595;BME280;1003;48.002;7.788;2022-11-20T09:05:02;99674.22;;;7.83;100.00
5595;BME280;1003;48.002;7.788;2022-11-20T09:07:29;99671.69;;;7.81;100.00
5595;BME280;1003;48.002;7.788;2022-11-20T09:09:57;99670.09;;;7.88;100.00
5595;BME280;1003;48.002;7.788;2022-11-20T09:12:25;99662.47;;;7.76;100.00
5595;BME280;1003;48.002;7.788;2022-11-20T09:14:52;99667.56;;;7.86;100.00
5595;BME280;1003;48.002;7.788;2022-11-20T09:17:19;99663.41;;;7.88;100.00
5595;BME280;1003;48.002;7.788;2022-11-20T09:19:47;99659.25;;;7.89;100.00
5595;BME280;1003;48.002;7.788;2022-11-20T09:22:14;99664.28;;;7.95;100.00
5595;BME280;1003;48.002;7.788;2022-11-20T09:24:41;99660.09;;;7.89;100.00
5595;BME280;1003;48.002;7.788;2022-11-20T09:27:08;99659.25;;;7.89;100.00
5595;BME280;1003;48.002;7.788;2022-11-20T09:29:36;99652.56;;;7.89;100.00
5595;BME280;1003;48.002;7.788;2022-11-20T09:32:04;99658.53;;;8.04;100.00
5595;BME280;1003;48.002;7.788;2022-11-20T09:34:31;99657.81;;;8.19;100.00
5595;BME280;1003;48.002;7.788;2022-11-20T09:36:59;99664.53;;;8.24;100.00
5595;BME280;1003;48.002;7.788;2022-11-20T09:39:26;99657.19;;;8.47;100.00
5595;BME280;1003;48.002;7.788;2022-11-20T09:42:26;99655.53;;;8.49;100.00
5595;BME280;1003;48.002;7.788;2022-11-20T09:45:21;99657.38;;;8.81;100.00
5595;BME280;1003;48.002;7.788;2022-11-20T09:48:08;99644.88;;;8.84;100.00
5595;BME280;1003;48.002;7.788;2022-11-20T09:50:45;99645.81;;;9.12;100.00
5595;BME280;1003;48.002;7.788;2022-11-20T09:53:25;99640.84;;;9.29;100.00
5595;BME280;1003;48.002;7.788;2022-11-20T09:55:57;99637.53;;;9.50;100.00
5595;BME280;1003;48.002;7.788;2022-11-20T09:58:31;99617.44;;;9.33;100.00
5595;BME280;1003;48.002;7.788;2022-11-20T10:01:10;99595.69;;;9.27;100.00
5595;BME280;1003;48.002;7.788;2022-11-20T10:03:51;99586.50;;;9.26;100.00
5595;BME280;1003;48.002;7.788;2022-11-20T10:06:29;99574.78;;;9.33;100.00
5595;BME280;1003;48.002;7.788;2022-11-20T10:09:11;99555.53;;;9.18;100.00
5595;BME280;1003;48.002;7.788;2022-11-20T10:11:51;99540.50;;;9.27;100.00
5595;BME280;1003;48.002;7.788;2022-11-20T10:14:32;99516.25;;;9.23;100.00
5595;BME280;1003;48.002;7.788;2022-11-20T10:17:19;99497.84;;;9.19;100.00
5595;BME280;1003;48.002;7.788;2022-11-20T10:20:08;99489.50;;;9.19;100.00
5595;BME280;1003;48.002;7.788;2022-11-20T10:22:58;99485.31;;;9.18;100.00
5595;BME280;1003;48.002;7.788;2022-11-20T10:25:38;99466.09;;;9.05;100.00
5595;BME280;1003;48.002;7.788;2022-11-20T10:28:30;99450.19;;;8.97;100.00
5595;BME280;1003;48.002;7.788;2022-11-20T10:31:08;99444.34;;;9.02;100.00
5595;BME280;1003;48.002;7.788;2022-11-20T10:33:44;99439.34;;;9.14;100.00
5595;BME280;1003;48.002;7.788;2022-11-20T10:36:19;99443.50;;;9.25;100.00
5595;BME280;1003;48.002;7.788;2022-11-20T10:38:54;99418.44;;;9.34;100.00
5595;BME280;1003;48.002;7.788;2022-11-20T10:41:29;99412.53;;;9.61;100.00
5595;BME280;1003;48.002;7.788;2022-11-20T10:44:04;99403.25;;;9.86;100.00
5595;BME280;1003;48.002;7.788;2022-11-20T10:46:39;99397.31;;;10.08;100.00
5595;BME280;1003;48.002;7.788;2022-11-20T10:49:14;99360.47;;;10.07;100.00
5595;BME280;1003;48.002;7.788;2022-11-20T10:51:57;99332.88;;;10.03;100.00
5595;BME280;1003;48.002;7.788;2022-11-20T10:54:38;99315.28;;;10.04;100.00
5595;BME280;1003;48.002;7.788;2022-11-20T10:57:20;99296.03;;;10.00;100.00
5595;BME280;1003;48.002;7.788;2022-11-20T11:00:06;99280.81;;;10.28;100.00
5595;BME280;1003;48.002;7.788;2022-11-20T11:02:42;99253.25;;;10.15;100.00
5595;BME280;1003;48.002;7.788;2022-11-20T11:05:29;99239.91;;;10.13;100.00
5595;BME280;1003;48.002;7.788;2022-11-20T11:07:59;99219.72;;;10.21;100.00
5595;BME280;1003;48.002;7.788;2022-11-20T11:10:39;99204.66;;;10.22;100.00
5595;BME280;1003;48.002;7.788;2022-11-20T11:13:20;99190.44;;;10.20;100.00
5595;BME280;1003;48.002;7.788;2022-11-20T11:15:47;99168.81;;;10.07;100.00
5595;BME280;1003;48.002;7.788;2022-11-20T11:18:25;99153.00;;;9.95;100.00
5595;BME280;1003;48.002;7.788;2022-11-20T11:20:54;99140.47;;;9.89;100.00
5595;BME280;1003;48.002;7.788;2022-11-20T11:23:32;99117.03;;;9.89;100.00
5595;BME280;1003;48.002;7.788;2022-11-20T11:26:03;99104.53;;;9.86;100.00
5595;BME280;1003;48.002;7.788;2022-11-20T11:28:32;99106.94;;;9.95;100.00
5595;BME280;1003;48.002;7.788;2022-11-20T11:30:59;99084.31;;;10.01;100.00
5595;BME280;1003;48.002;7.788;2022-11-20T11:33:29;99088.44;;;10.08;100.00
5595;BME280;1003;48.002;7.788;2022-11-20T11:36:01;99071.75;;;10.03;100.00
5595;BME280;1003;48.002;7.788;2022-11-20T11:38:35;99050.00;;;10.00;100.00
5595;BME280;1003;48.002;7.788;2022-11-20T11:41:04;99047.59;;;9.89;100.00
5595;BME280;1003;48.002;7.788;2022-11-20T11:43:35;99029.13;;;9.93;100.00
5595;BME280;1003;48.002;7.788;2022-11-20T11:46:31;99004.34;;;9.64;100.00
5595;BME280;1003;48.002;7.788;2022-11-20T11:49:01;98983.59;;;9.47;100.00
5595;BME280;1003;48.002;7.788;2022-11-20T11:51:50;98983.66;;;9.38;100.00
5595;BME280;1003;48.002;7.788;2022-11-20T11:54:29;98969.44;;;9.38;100.00
5595;BME280;1003;48.002;7.788;2022-11-20T11:57:01;98966.16;;;9.30;100.00
5595;BME280;1003;48.002;7.788;2022-11-20T11:59:46;98950.41;;;9.14;100.00
5595;BME280;1003;48.002;7.788;2022-11-20T12:02:34;98943.66;;;9.23;100.00
5595;BME280;1003;48.002;7.788;2022-11-20T12:05:16;98944.28;;;9.44;100.00
5595;BME280;1003;48.002;7.788;2022-11-20T12:07:49;98939.09;;;9.63;100.00
5595;BME280;1003;48.002;7.788;2022-11-20T12:10:23;98916.50;;;9.66;100.00
5595;BME280;1003;48.002;7.788;2022-11-20T12:13:01;98921.38;;;9.77;100.00
5595;BME280;1003;48.002;7.788;2022-11-20T12:15:33;98891.28;;;9.77;100.00
5595;BME280;1003;48.002;7.788;2022-11-20T12:18:01;98868.78;;;9.67;100.00
5595;BME280;1003;48.002;7.788;2022-11-20T12:20:37;98854.63;;;9.63;100.00
5595;BME280;1003;48.002;7.788;2022-11-20T12:23:17;98844.78;;;9.48;100.00
5595;BME280;1003;48.002;7.788;2022-11-20T12:25:56;98843.88;;;9.51;100.00
5595;BME280;1003;48.002;7.788;2022-11-20T12:28:44;98839.59;;;9.60;100.00
5595;BME280;1003;48.002;7.788;2022-11-20T12:31:31;98835.81;;;9.95;100.00
5595;BME280;1003;48.002;7.788;2022-11-20T12:34:23;98837.75;;;10.38;100.00
5595;BME280;1003;48.002;7.788;2022-11-20T12:37:03;98831.38;;;10.72;100.00
5595;BME280;1003;48.002;7.788;2022-11-20T12:39:40;98810.19;;;10.87;100.00
5595;BME280;1003;48.002;7.788;2022-11-20T12:42:44;98800.97;;;10.86;100.00
5595;BME280;1003;48.002;7.788;2022-11-20T12:45:59;98798.63;;;10.75;100.00
5595;BME280;1003;48.002;7.788;2022-11-20T12:48:41;98786.56;;;10.46;100.00
5595;BME280;1003;48.002;7.788;2022-11-20T12:51:37;98784.25;;;10.33;100.00
5595;BME280;1003;48.002;7.788;2022-11-20T12:54:52;98776.19;;;10.12;100.00
5595;BME280;1003;48.002;7.788;2022-11-20T12:57:29;98777.53;;;9.73;100.00
5595;BME280;1003;48.002;7.788;2022-11-20T13:00:11;98783.03;;;9.35;100.00
5595;BME280;1003;48.002;7.788;2022-11-20T13:03:24;98804.84;;;9.28;100.00
5595;BME280;1003;48.002;7.788;2022-11-20T13:06:05;98819.59;;;9.54;100.00
5595;BME280;1003;48.002;7.788;2022-11-20T13:08:35;98829.38;;;9.76;100.00
5595;BME280;1003;48.002;7.788;2022-11-20T13:11:13;98828.22;;;10.01;100.00
5595;BME280;1003;48.002;7.788;2022-11-20T13:14:09;98819.78;;;10.07;100.00
5595;BME280;1003;48.002;7.788;2022-11-20T13:16:46;98786.50;;;9.92;100.00
5595;BME280;1003;48.002;7.788;2022-11-20T13:19:17;98768.44;;;9.66;100.00
5595;BME280;1003;48.002;7.788;2022-11-20T13:21:47;98767.72;;;9.56;100.00
5595;BME280;1003;48.002;7.788;2022-11-20T13:24:26;98780.06;;;9.73;100.00
5595;BME280;1003;48.002;7.788;2022-11-20T13:27:21;98774.72;;;9.94;100.00
5595;BME280;1003;48.002;7.788;2022-11-20T13:30:13;98763.00;;;9.96;100.00
5595;BME280;1003;48.002;7.788;2022-11-20T13:32:54;98758.09;;;9.89;100.00
5595;BME280;1003;48.002;7.788;2022-11-20T13:35:29;98754.78;;;9.87;100.00
5595;BME280;1003;48.002;7.788;2022-11-20T13:38:04;98760.38;;;10.04;100.00
5595;BME280;1003;48.002;7.788;2022-11-20T13:40:33;98763.47;;;10.21;100.00